Kirsehir, Turkey

7:38 AM EET on February 12, 2016 (GMT +0200)
Kapadokya | | Change Station
CLOSE
Current Station
Airport
Location: Nevsehir,
Elevation: 3100 ft
Nearby Weather Stations

Elev 3100 ft 38.77 °N, 34.53 °E | Updated 18 minutes ago

Mostly Cloudy
Mostly Cloudy
41 °F
Feels Like 36 °F
N
7
Wind Variable Wind from SE

Today
High -- | Low -- °F
--% Chance of Precip.
Yesterday
High -- | Low -- °F
Precip. -- in
Pressure 30.09 in
Visibility 6.2 miles
Clouds Scattered Clouds 3500 ft
Mostly Cloudy 9000 ft
Windchill 36 °F
Dew Point 36 °F
Humidity 81%
Rainfall 0.00 in
Snow Depth Not available.
6:39 AM 5:16 PM
Waxing Crescent, 17% visible
METAR LTAZ 120520Z 13006KT 9999 SCT035 BKN090 05/02 Q1019
Pressure 30.09 in
Visibility 6.2 miles
Clouds Scattered Clouds 3500 ft
Mostly Cloudy 9000 ft
Windchill 36 °F
Dew Point 36 °F
Humidity 81%
Rainfall 0.00 in
Snow Depth Not available.
6:39 AM 5:16 PM
Waxing Crescent, 17% visible
METAR LTAZ 120520Z 13006KT 9999 SCT035 BKN090 05/02 Q1019

10-Day Weather Forecast

Almanac

Astronomy

Feb. 12, 2016 Rise Set
Actual Time
Civil Twilight
Nautical Twilight
Astronomical Twilight
Moon
Length of Visible Light
Length of Day
Tomorrow will be .
, % of the Moon is Illuminated

Today's Extremes

Country Highs Country Lows

Community

WunderPhotos

Upload Photos

1,892,268 photos uploaded!

WunderBlog® & News

Nearby

Air Quality

  Air Quality AQ Index Pollutant
Not available.

Snow Depth

Station Depth Elevation

Earthquake Activity

City Distance Mag. Time & Date
Minimum magnitude displayed is 2.5.

Coastal Water Temperatures

Place Temperature

Stations

Nearby Weather Stations

Station Location Temp. Windchill Dew Point Humidity Wind Precip. Elev Updated Type